createdAt,value
2023-02-27T00:00:56.291Z,6.65
2023-02-27T00:04:00.403Z,5.82
2023-02-27T00:07:03.342Z,6.05
2023-02-27T00:10:07.943Z,7.35
2023-02-27T00:13:10.828Z,6.07
2023-02-27T00:16:14.116Z,6.78
2023-02-27T00:19:16.918Z,7.10
2023-02-27T00:22:19.694Z,7.50
2023-02-27T00:25:22.581Z,7.60
2023-02-27T00:28:25.436Z,6.33
2023-02-27T00:31:28.723Z,6.90
2023-02-27T00:34:31.824Z,7.65
2023-02-27T00:37:34.872Z,6.03
2023-02-27T00:40:41.874Z,7.95
2023-02-27T00:43:44.621Z,6.80
2023-02-27T00:46:47.574Z,6.18
2023-02-27T00:49:50.365Z,5.85
2023-02-27T00:52:53.389Z,6.68
2023-02-27T00:55:57.310Z,6.00
2023-02-27T00:59:00.401Z,5.63
2023-02-27T01:02:03.823Z,5.82
2023-02-27T01:05:07.294Z,6.22
2023-02-27T01:08:10.132Z,6.07
2023-02-27T01:11:13.024Z,5.60
2023-02-27T01:14:15.787Z,4.60
2023-02-27T01:17:21.577Z,5.45
2023-02-27T01:20:24.493Z,5.60
2023-02-27T01:23:27.304Z,5.35
2023-02-27T01:26:30.061Z,5.25
2023-02-27T01:29:32.931Z,4.43
2023-02-27T01:32:38.179Z,4.15
2023-02-27T01:35:41.006Z,3.90
2023-02-27T01:38:43.867Z,4.60
2023-02-27T01:41:46.857Z,5.38
2023-02-27T01:45:02.675Z,3.93
2023-02-27T01:48:34.687Z,4.50
2023-02-27T01:51:42.048Z,4.85
2023-02-27T01:54:44.895Z,4.97
2023-02-27T01:57:49.655Z,5.32
2023-02-27T02:00:52.876Z,5.57
2023-02-27T02:03:58.270Z,5.05
2023-02-27T02:07:06.195Z,5.43
2023-02-27T02:10:12.671Z,4.57
2023-02-27T02:13:15.917Z,5.75
2023-02-27T02:16:27.687Z,4.80
2023-02-27T02:19:52.233Z,4.00
2023-02-27T02:23:32.609Z,5.10
2023-02-27T02:26:38.049Z,4.53
2023-02-27T02:29:52.904Z,5.47
2023-02-27T02:33:04.657Z,5.57
2023-02-27T02:36:22.022Z,5.13
2023-02-27T02:39:42.023Z,6.63
2023-02-27T02:43:26.615Z,5.82
2023-02-27T02:46:47.874Z,5.22
2023-02-27T02:50:01.633Z,5.40
2023-02-27T02:53:13.385Z,6.15
2023-02-27T02:56:28.273Z,6.75
2023-02-27T02:59:34.304Z,6.50
2023-02-27T03:02:48.200Z,7.45
2023-02-27T03:06:23.396Z,6.23
2023-02-27T03:09:34.449Z,6.85
2023-02-27T03:12:40.988Z,7.80
2023-02-27T03:16:07.942Z,7.82
2023-02-27T03:19:21.310Z,7.47
2023-02-27T03:22:47.554Z,7.03
2023-02-27T03:25:51.821Z,4.90
2023-02-27T03:29:01.746Z,6.05
2023-02-27T03:32:29.599Z,6.90
2023-02-27T03:35:38.553Z,6.80
2023-02-27T03:38:48.116Z,6.70
2023-02-27T03:42:07.354Z,6.88
2023-02-27T03:45:37.570Z,5.47
2023-02-27T03:48:44.850Z,6.03
2023-02-27T03:51:48.167Z,6.63
2023-02-27T03:54:58.092Z,5.03
2023-02-27T03:58:01.118Z,5.50
2023-02-27T04:01:04.710Z,4.88
2023-02-27T04:04:12.546Z,5.75
2023-02-27T04:07:55.054Z,6.43
2023-02-27T04:11:29.924Z,5.50
2023-02-27T04:14:38.792Z,4.22
2023-02-27T04:18:05.884Z,5.20
2023-02-27T04:21:18.510Z,4.22
2023-02-27T04:24:40.357Z,4.97
2023-02-27T04:27:51.804Z,4.27
2023-02-27T04:31:01.089Z,4.50
2023-02-27T04:34:29.720Z,4.40
2023-02-27T04:37:46.684Z,5.60
2023-02-27T04:41:00.741Z,4.95
2023-02-27T04:44:08.276Z,5.20
2023-02-27T04:47:14.394Z,3.70
2023-02-27T04:50:23.070Z,5.10
2023-02-27T04:53:31.394Z,4.90
2023-02-27T04:56:40.915Z,5.03
2023-02-27T04:59:48.410Z,4.40
2023-02-27T05:03:09.403Z,4.40
2023-02-27T05:06:15.338Z,4.78
2023-02-27T05:09:31.691Z,4.72
2023-02-27T05:12:34.356Z,4.93
2023-02-27T05:15:43.831Z,4.83
2023-02-27T05:18:47.122Z,4.30
2023-02-27T05:22:00.536Z,4.85
2023-02-27T05:25:31.128Z,4.50
2023-02-27T05:28:42.324Z,5.95
2023-02-27T05:31:54.672Z,5.87
2023-02-27T05:34:57.468Z,5.82
2023-02-27T05:38:09.929Z,5.35
2023-02-27T05:41:18.237Z,4.68
2023-02-27T05:44:25.463Z,4.60
2023-02-27T05:47:32.141Z,4.73
2023-02-27T05:50:37.955Z,5.03
2023-02-27T05:53:46.300Z,4.78
2023-02-27T05:56:52.183Z,5.78
2023-02-27T06:00:21.431Z,5.53
2023-02-27T06:03:25.237Z,4.40
2023-02-27T06:06:30.474Z,5.80
2023-02-27T06:09:34.008Z,4.75
2023-02-27T06:12:36.821Z,5.47
2023-02-27T06:15:39.579Z,4.90
2023-02-27T06:18:42.434Z,5.93
2023-02-27T06:21:45.143Z,6.35
2023-02-27T06:24:47.870Z,6.70
2023-02-27T06:27:50.745Z,5.47
2023-02-27T06:30:55.437Z,6.63
2023-02-27T06:33:58.277Z,4.77
2023-02-27T06:37:03.855Z,4.75
2023-02-27T06:40:11.683Z,5.47
2023-02-27T06:43:15.637Z,5.00
2023-02-27T06:46:18.533Z,4.80
2023-02-27T06:49:21.499Z,4.13
2023-02-27T06:52:24.257Z,4.57
2023-02-27T06:55:26.960Z,5.05
2023-02-27T06:58:29.728Z,4.97
2023-02-27T07:01:32.793Z,5.53
2023-02-27T07:04:35.674Z,4.50
2023-02-27T07:07:39.319Z,5.25
2023-02-27T07:10:47.326Z,4.35
2023-02-27T07:13:50.211Z,5.30
2023-02-27T07:16:54.195Z,5.25
2023-02-27T07:19:57.130Z,4.40
2023-02-27T07:22:59.871Z,5.38
2023-02-27T07:26:02.687Z,5.07
2023-02-27T07:29:06.100Z,5.68
2023-02-27T07:32:09.069Z,5.30
2023-02-27T07:35:12.369Z,4.60
2023-02-27T07:38:15.168Z,5.35
2023-02-27T07:41:30.020Z,4.97
2023-02-27T07:44:36.232Z,4.60
2023-02-27T07:47:38.985Z,4.60
2023-02-27T07:50:41.762Z,5.00
2023-02-27T07:53:44.778Z,5.07
2023-02-27T07:56:47.511Z,5.13
2023-02-27T07:59:50.337Z,4.97
2023-02-27T08:02:53.130Z,4.82
2023-02-27T08:05:55.845Z,5.20
2023-02-27T08:08:58.628Z,5.20
2023-02-27T08:12:03.084Z,5.32
2023-02-27T08:15:06.502Z,4.93
2023-02-27T08:18:09.414Z,5.30
2023-02-27T08:21:12.258Z,5.07
2023-02-27T08:24:15.127Z,4.60
2023-02-27T08:27:17.990Z,4.82
2023-02-27T08:30:21.018Z,4.78
2023-02-27T08:33:24.813Z,4.85
2023-02-27T08:36:27.974Z,4.17
2023-02-27T08:39:30.969Z,4.13
2023-02-27T08:42:34.455Z,4.20
2023-02-27T08:45:37.300Z,4.43
2023-02-27T08:48:42.794Z,4.65
2023-02-27T08:51:45.773Z,5.60
2023-02-27T08:54:48.636Z,4.90
2023-02-27T08:57:51.395Z,4.75
2023-02-27T09:00:54.869Z,5.25
2023-02-27T09:03:57.781Z,4.53
2023-02-27T09:07:00.593Z,4.23
2023-02-27T09:10:03.815Z,3.95
2023-02-27T09:13:06.809Z,5.35
2023-02-27T09:16:10.417Z,4.28
2023-02-27T09:19:14.559Z,4.05
2023-02-27T09:22:18.789Z,4.07
2023-02-27T09:25:21.522Z,3.70
2023-02-27T09:28:24.322Z,4.30
2023-02-27T09:31:32.207Z,4.50
2023-02-27T09:34:36.135Z,4.93
2023-02-27T09:37:39.459Z,3.53
2023-02-27T09:40:44.805Z,3.97
2023-02-27T09:43:51.636Z,4.53
2023-02-27T09:46:54.845Z,4.10
2023-02-27T09:50:06.402Z,4.00
2023-02-27T09:53:32.066Z,3.90
2023-02-27T09:56:56.996Z,4.78
2023-02-27T10:00:40.528Z,3.70
2023-02-27T10:03:43.498Z,2.95
2023-02-27T10:06:50.410Z,3.35
2023-02-27T10:10:14.461Z,3.47
2023-02-27T10:13:39.565Z,3.92
2023-02-27T10:16:43.279Z,3.90
2023-02-27T10:19:48.404Z,4.00
2023-02-27T10:22:54.556Z,3.78
2023-02-27T10:25:58.295Z,3.90
2023-02-27T10:29:15.544Z,4.20
2023-02-27T10:32:27.259Z,4.43
2023-02-27T10:35:36.181Z,3.97
2023-02-27T10:38:44.866Z,4.95
2023-02-27T10:41:48.921Z,2.97
2023-02-27T10:44:53.843Z,3.85
2023-02-27T10:47:59.081Z,3.90
2023-02-27T10:51:25.262Z,4.30
2023-02-27T10:54:30.732Z,4.38
2023-02-27T10:57:43.397Z,4.53
2023-02-27T11:00:59.389Z,4.72
2023-02-27T11:04:02.206Z,4.22
2023-02-27T11:07:09.242Z,4.18
2023-02-27T11:10:15.147Z,3.42
2023-02-27T11:13:23.355Z,5.13
2023-02-27T11:16:26.963Z,3.92
2023-02-27T11:19:34.214Z,5.03
2023-02-27T11:22:37.649Z,4.78
2023-02-27T11:25:40.551Z,4.45
2023-02-27T11:28:43.876Z,4.27
2023-02-27T11:31:55.982Z,4.47
2023-02-27T11:34:58.857Z,4.57
2023-02-27T11:38:07.642Z,4.03
2023-02-27T11:41:11.166Z,4.10
2023-02-27T11:44:34.589Z,4.30
2023-02-27T11:47:51.463Z,4.25
2023-02-27T11:51:12.306Z,3.85
2023-02-27T11:54:48.268Z,4.32
2023-02-27T11:57:58.904Z,4.47
2023-02-27T12:01:06.172Z,3.97
2023-02-27T12:04:29.072Z,3.70
2023-02-27T12:07:38.890Z,4.50
2023-02-27T12:11:12.397Z,4.80
2023-02-27T12:14:27.727Z,5.50
2023-02-27T12:17:38.910Z,4.97
2023-02-27T12:20:56.793Z,5.35
2023-02-27T12:24:10.317Z,4.07
2023-02-27T12:27:21.784Z,5.20
2023-02-27T12:30:28.252Z,5.88
2023-02-27T12:33:34.535Z,4.97
2023-02-27T12:36:38.504Z,5.25
2023-02-27T12:39:44.850Z,5.15
2023-02-27T12:43:08.184Z,5.18
2023-02-27T12:46:29.503Z,5.20
2023-02-27T12:49:44.200Z,5.07
2023-02-27T12:52:58.974Z,5.45
2023-02-27T12:56:10.231Z,5.32
2023-02-27T12:59:46.904Z,5.32
2023-02-27T13:02:52.313Z,5.20
2023-02-27T13:06:03.119Z,5.50
2023-02-27T13:09:40.135Z,5.65
2023-02-27T13:12:59.310Z,4.90
2023-02-27T13:16:25.984Z,4.93
2023-02-27T13:19:58.040Z,4.63
2023-02-27T13:23:18.876Z,4.23
2023-02-27T13:26:34.890Z,4.20
2023-02-27T13:29:41.619Z,4.70
2023-02-27T13:33:07.581Z,4.82
2023-02-27T13:36:13.069Z,4.70
2023-02-27T13:39:44.160Z,4.73
2023-02-27T13:42:47.036Z,4.28
2023-02-27T13:46:03.697Z,5.10
2023-02-27T13:49:10.737Z,4.90
2023-02-27T13:52:30.061Z,4.53
2023-02-27T13:55:37.861Z,4.33
2023-02-27T13:58:41.904Z,5.72
2023-02-27T14:01:57.791Z,5.72
2023-02-27T14:05:06.736Z,4.78
2023-02-27T14:08:20.964Z,5.32
2023-02-27T14:11:39.888Z,5.00
2023-02-27T14:14:46.257Z,5.20
2023-02-27T14:18:02.446Z,4.60
2023-02-27T14:21:12.604Z,4.38
2023-02-27T14:24:17.333Z,4.20
2023-02-27T14:27:49.338Z,5.07
2023-02-27T14:31:06.147Z,4.22
2023-02-27T14:34:15.531Z,4.70
2023-02-27T14:37:23.559Z,4.30
2023-02-27T14:40:34.180Z,4.82
2023-02-27T14:43:46.705Z,4.43
2023-02-27T14:46:50.475Z,3.60
2023-02-27T14:49:53.521Z,4.25
2023-02-27T14:52:56.329Z,4.13
2023-02-27T14:56:00.580Z,3.95
2023-02-27T14:59:04.941Z,4.53
2023-02-27T15:02:43.190Z,3.90
2023-02-27T15:05:48.022Z,4.97
2023-02-27T15:08:54.334Z,4.88
2023-02-27T15:12:04.049Z,4.20
2023-02-27T15:15:09.940Z,3.97
2023-02-27T15:18:14.551Z,4.60
2023-02-27T15:21:20.280Z,4.45
2023-02-27T15:24:26.172Z,4.40
2023-02-27T15:27:30.268Z,4.78
2023-02-27T15:30:33.399Z,4.43
2023-02-27T15:33:37.050Z,4.45
2023-02-27T15:36:46.976Z,4.53
2023-02-27T15:39:51.623Z,4.70
2023-02-27T15:42:55.381Z,4.30
2023-02-27T15:45:58.586Z,3.90
2023-02-27T15:49:01.803Z,7.25
2023-02-27T15:52:25.441Z,5.65
2023-02-27T15:55:32.149Z,5.70
2023-02-27T15:58:38.412Z,8.20
2023-02-27T16:01:41.928Z,5.60
2023-02-27T16:04:46.580Z,4.82
2023-02-27T16:07:50.378Z,4.53
2023-02-27T16:10:53.449Z,7.78
2023-02-27T16:13:57.887Z,6.93
2023-02-27T16:17:00.900Z,5.93
2023-02-27T16:20:41.487Z,4.40
2023-02-27T16:23:45.538Z,4.88
2023-02-27T16:26:52.119Z,4.38
2023-02-27T16:29:57.556Z,3.70
2023-02-27T16:33:02.052Z,3.87
2023-02-27T16:36:17.184Z,3.63
2023-02-27T16:39:20.232Z,4.00
2023-02-27T16:42:23.270Z,3.70
2023-02-27T16:45:28.735Z,4.07
2023-02-27T16:48:31.836Z,3.30
2023-02-27T16:51:35.000Z,3.55
2023-02-27T16:54:37.976Z,3.45
2023-02-27T16:57:40.922Z,3.80
2023-02-27T17:00:44.244Z,3.80
2023-02-27T17:03:47.478Z,3.13
2023-02-27T17:06:50.519Z,3.25
2023-02-27T17:09:53.647Z,3.92
2023-02-27T17:12:56.566Z,3.15
2023-02-27T17:16:00.059Z,4.25
2023-02-27T17:19:03.072Z,3.80
2023-02-27T17:22:06.612Z,3.63
2023-02-27T17:25:10.849Z,4.18
2023-02-27T17:28:13.648Z,4.65
2023-02-27T17:31:16.475Z,4.57
2023-02-27T17:34:20.615Z,5.00
2023-02-27T17:37:23.823Z,7.10
2023-02-27T17:40:27.479Z,4.97
2023-02-27T17:43:30.398Z,4.88
2023-02-27T17:46:33.585Z,5.85
2023-02-27T17:49:36.508Z,5.67
2023-02-27T17:52:40.076Z,5.65
2023-02-27T17:55:42.783Z,5.78
2023-02-27T17:58:45.706Z,6.82
2023-02-27T18:01:48.510Z,6.88
2023-02-27T18:04:53.804Z,7.97
2023-02-27T18:07:56.888Z,9.65
2023-02-27T18:11:00.252Z,8.23
2023-02-27T18:14:06.538Z,8.50
2023-02-27T18:17:12.694Z,8.75
2023-02-27T18:20:15.863Z,7.63
2023-02-27T18:23:19.664Z,12.40
2023-02-27T18:26:32.733Z,11.15
2023-02-27T18:29:36.910Z,10.25
2023-02-27T18:32:39.908Z,8.10
2023-02-27T18:35:44.175Z,11.93
2023-02-27T18:38:47.668Z,12.20
2023-02-27T18:41:52.037Z,10.85
2023-02-27T18:44:56.236Z,9.15
2023-02-27T18:47:59.351Z,8.10
2023-02-27T18:51:05.952Z,8.23
2023-02-27T18:54:13.015Z,8.23
2023-02-27T18:57:16.396Z,8.88
2023-02-27T19:00:21.779Z,7.53
2023-02-27T19:03:25.224Z,8.48
2023-02-27T19:06:28.773Z,6.53
2023-02-27T19:09:32.918Z,8.45
2023-02-27T19:12:36.188Z,7.35
2023-02-27T19:15:39.611Z,6.93
2023-02-27T19:18:42.923Z,7.15
2023-02-27T19:21:48.083Z,5.87
2023-02-27T19:24:51.178Z,7.10
2023-02-27T19:27:55.684Z,7.30
2023-02-27T19:30:58.938Z,7.05
2023-02-27T19:34:03.209Z,7.22
2023-02-27T19:37:06.481Z,6.67
2023-02-27T19:40:11.113Z,6.45
2023-02-27T19:43:15.479Z,6.03
2023-02-27T19:46:24.964Z,6.20
2023-02-27T19:49:28.089Z,6.10
2023-02-27T19:52:31.401Z,5.40
2023-02-27T19:55:34.736Z,5.20
2023-02-27T19:58:39.466Z,6.00
2023-02-27T20:01:42.593Z,5.95
2023-02-27T20:04:45.809Z,6.10
2023-02-27T20:07:48.713Z,4.60
2023-02-27T20:10:59.589Z,5.25
2023-02-27T20:14:02.889Z,5.18
2023-02-27T20:17:06.544Z,4.85
2023-02-27T20:20:10.400Z,4.47
2023-02-27T20:23:15.529Z,4.03
2023-02-27T20:26:24.053Z,4.05
2023-02-27T20:29:28.412Z,3.83
2023-02-27T20:32:31.361Z,4.65
2023-02-27T20:35:37.946Z,4.38
2023-02-27T20:38:41.504Z,4.20
2023-02-27T20:41:45.127Z,4.30
2023-02-27T20:44:49.204Z,6.38
2023-02-27T20:47:52.233Z,8.68
2023-02-27T20:50:55.467Z,7.07
2023-02-27T20:54:00.196Z,6.30
2023-02-27T20:57:04.310Z,6.20
2023-02-27T21:00:11.736Z,4.03
2023-02-27T21:03:18.022Z,4.43
2023-02-27T21:06:21.296Z,4.40
2023-02-27T21:09:24.016Z,4.37
2023-02-27T21:12:26.758Z,4.18
2023-02-27T21:15:31.314Z,4.03
2023-02-27T21:18:34.272Z,3.45
2023-02-27T21:21:37.416Z,4.20
2023-02-27T21:24:40.203Z,2.83
2023-02-27T21:27:42.926Z,3.17
2023-02-27T21:30:45.802Z,3.63
2023-02-27T21:33:49.911Z,3.38
2023-02-27T21:36:53.772Z,4.10
2023-02-27T21:39:57.408Z,3.97
2023-02-27T21:43:00.207Z,3.63
2023-02-27T21:46:13.502Z,4.13
2023-02-27T21:49:22.721Z,4.07
2023-02-27T21:52:25.530Z,3.70
2023-02-27T21:55:28.329Z,3.60
2023-02-27T21:58:31.515Z,4.10
2023-02-27T22:01:34.846Z,4.22
2023-02-27T22:04:37.573Z,3.53
2023-02-27T22:07:40.342Z,3.88
2023-02-27T22:10:46.024Z,3.30
2023-02-27T22:13:49.149Z,3.40
2023-02-27T22:16:51.861Z,3.20
2023-02-27T22:19:54.810Z,3.40
2023-02-27T22:22:57.640Z,3.47
2023-02-27T22:26:13.020Z,3.77
2023-02-27T22:29:17.173Z,2.95
2023-02-27T22:32:20.119Z,4.25
2023-02-27T22:35:23.584Z,3.92
2023-02-27T22:38:26.703Z,3.75
2023-02-27T22:41:35.753Z,3.93
2023-02-27T22:44:38.567Z,3.72
2023-02-27T22:47:41.389Z,4.13
2023-02-27T22:50:44.108Z,4.10
2023-02-27T22:53:47.020Z,5.63
2023-02-27T22:56:54.713Z,4.60
2023-02-27T22:59:58.638Z,4.68
2023-02-27T23:03:01.358Z,3.95
2023-02-27T23:06:06.250Z,5.55
2023-02-27T23:09:14.756Z,4.60
2023-02-27T23:12:17.529Z,4.90
2023-02-27T23:15:20.354Z,4.93
2023-02-27T23:18:23.125Z,4.93
2023-02-27T23:21:32.012Z,4.70
2023-02-27T23:24:35.003Z,4.13
2023-02-27T23:27:38.640Z,4.57
2023-02-27T23:30:41.458Z,4.97
2023-02-27T23:33:44.290Z,4.70
2023-02-27T23:36:47.033Z,5.50
2023-02-27T23:39:49.714Z,4.05
2023-02-27T23:42:52.720Z,4.80
2023-02-27T23:45:55.652Z,4.32
2023-02-27T23:48:59.621Z,5.30
2023-02-27T23:52:03.412Z,5.65
2023-02-27T23:55:06.903Z,5.30
2023-02-27T23:58:11.281Z,4.23
